Schedule Details


Flight Number: CTN418
Departure: Cilipi (LDDU) at 15:55
Arrival: Frankfurt/main (EDDF) at 18:00
Route: AMUGO UL611 UVODI UL862 SABAD DCT PIKIT DCT SUBEN UQ162 PSA

Weather Information
LDDU 170000Z 04008KT CAVOK 05/M02 Q1017
EDDF 170020Z VRB01KT 0700 R25R/1800N R25C/1900N R25L/1500VP2000D R18/0800V1000D FG OVC001 00/00 Q1016 R25R/29//95 R25C/29//95 R25L/29//95 R18/29//95 NOSIG
Schedule Frequency

Route Map